Latest Weather Observations for Strahan

IDT60801

Issued at 8:33 pm EDT Thursday 2 April 2015 (issued every 30 minutes, with the page automatically refreshed every 10 minutes)

About weather observations | Map of weather stations | Latest weather observations for TAS | Other Formats
Station Details ID: 097072 Name: STRAHAN AERODROME Lat: -42.16 Lon: 145.29 Height: 21.0 m
Data from the previous 72 hours. | See also: Recent months at Strahan
Date/Time
EDT
Temp
°C
App
Temp
°C
Dew
Point
Rel
Hum
%
Delta-T
°C
Wind Press
QNH
hPa
Press
MSL
hPa
Rain
since 9 am
mm
Dir
 
Spd
km/h
Gust
km/h
Spd
kts
Gust
kts
02/08:30pm 9.3 3.8 4.1 70 2.3 SSE 22 32 12 17 1026.4 1026.4 0.8
02/08:00pm 9.5 4.6 4.1 69 2.4 S 19 33 10 18 1026.2 1026.2 0.8
02/07:30pm 9.6 4.2 4.4 70 2.3 S 22 30 12 16 1025.7 1025.7 0.8
02/07:00pm 9.9 4.2 4.7 70 2.3 S 24 35 13 19 1025.2 1025.2 0.8
02/06:30pm 10.3 4.5 4.2 66 2.7 S 24 35 13 19 1024.7 1024.7 0.8
02/06:00pm 11.4 5.0 3.2 57 3.6 S 26 35 14 19 1024.2 1024.2 0.8
02/05:30pm 12.4 6.1 3.9 56 3.8 S 26 37 14 20 1023.9 1023.9 0.8
02/05:00pm 13.0 5.4 3.7 53 4.2 SSW 33 44 18 24 1023.7 1023.7 0.8
02/04:30pm 13.3 6.0 4.7 56 3.9 SSW 32 43 17 23 1023.5 1023.5 0.8
02/04:00pm 13.5 6.9 4.1 53 4.3 S 28 41 15 22 1023.5 1023.5 0.8
02/03:30pm 13.6 7.3 5.5 58 3.8 S 28 39 15 21 1023.4 1023.4 0.8
02/03:00pm 12.6 4.7 4.6 58 3.6 S 35 48 19 26 1023.2 1023.2 0.8
02/02:30pm 12.7 6.3 5.4 61 3.4 S 28 44 15 24 1022.9 1022.9 0.8
02/02:00pm 13.1 5.4 5.3 59 3.6 S 35 48 19 26 1022.9 1022.9 0.8
02/01:30pm 13.3 6.8 6.4 63 3.3 S 30 41 16 22 1023.0 1023.0 0.8
02/01:00pm 13.2 6.2 6.1 62 3.4 S 32 43 17 23 1023.0 1023.0 0.8
02/12:52pm 12.5 5.9 5.9 64 3.1 SSW 30 48 16 26 1022.9 1022.9 0.8
02/12:30pm 12.8 5.9 6.4 65 3.0 S 32 44 17 24 1022.8 1022.8 0.8
02/12:00pm 12.4 6.9 7.7 73 2.3 S 26 37 14 20 1022.6 1022.6 0.8
02/11:41am 10.6 4.5 6.6 76 1.9 S 28 46 15 25 1022.6 1022.6 0.8
02/11:30am 11.4 5.0 6.9 74 2.1 S 30 43 16 23 1022.5 1022.5 0.8
02/11:00am 10.6 4.8 8.0 84 1.3 S 28 39 15 21 1022.6 1022.6 0.8
02/10:30am 10.3 6.4 9.4 94 0.4 SSE 20 32 11 17 1022.2 1022.2 0.8
02/10:00am 9.4 3.3 8.3 93 0.5 SSE 30 44 16 24 1021.7 1021.7 0.6
02/09:30am 9.6 3.9 8.2 91 0.7 SSE 28 41 15 22 1021.1 1021.1 0.6
02/09:11am 9.0 2.4 7.6 91 0.7 SSE 32 52 17 28 1020.6 1020.6 0.6
02/09:00am 9.6 3.8 8.0 90 0.8 S 28 39 15 21 1020.3 1020.3 24.0
02/08:46am 9.5 3.7 8.1 91 0.7 S 28 46 15 25 1019.7 1019.7 24.0
02/08:30am 9.4 2.6 7.8 90 0.8 S 33 44 18 24 1019.2 1019.2 24.0
02/08:00am 9.9 3.0 7.2 83 1.3 S 33 44 18 24 1018.2 1018.2 23.6
02/07:30am 10.3 4.4 7.4 82 1.4 S 28 48 15 26 1016.9 1016.9 23.4
02/07:05am 10.3 3.5 7.0 80 1.6 S 32 50 17 27 1016.1 1016.1 23.4
02/07:00am 10.6 3.7 7.3 80 1.6 SSE 33 46 18 25 1015.9 1015.9 23.4
02/06:30am 10.4 3.3 8.2 86 1.1 SSE 35 46 19 25 1014.9 1015.0 23.4
02/06:03am 10.4 3.9 8.8 90 0.8 S 33 52 18 28 1014.0 1014.0 23.4
02/06:00am 10.4 3.5 8.7 89 0.8 S 35 52 19 28 1013.9 1013.9 23.4
02/05:39am 10.2 4.6 8.8 91 0.7 S 28 46 15 25 1013.4 1013.4 23.4
02/05:30am 10.2 4.7 9.0 92 0.6 S 28 41 15 22 1013.1 1013.1 23.4
02/05:00am 10.2 4.0 9.4 95 0.4 S 32 43 17 23 1012.5 1012.5 23.0
02/04:45am 10.3 4.6 9.7 96 0.3 S 30 48 16 26 1012.2 1012.2 22.6
02/04:30am 10.2 5.3 9.9 98 0.2 S 26 41 14 22 1012.0 1012.0 22.4
02/04:17am 10.3 5.0 10.0 98 0.2 S 28 46 15 25 1011.8 1011.8 22.2
02/04:00am 10.2 4.6 10.0 99 0.1 S 30 46 16 25 1011.5 1011.5 21.4
02/03:45am 10.4 4.4 10.2 99 0.1 S 32 52 17 28 1011.3 1011.3 21.0
02/03:43am 10.5 4.6 10.3 99 0.1 S 32 44 17 24 1011.3 1011.3 20.8
02/03:30am 10.7 4.8 10.5 99 0.1 S 32 54 17 29 1010.9 1010.9 20.4
02/03:23am 10.7 4.2 10.5 99 0.1 S 35 54 19 29 1010.7 1010.7 19.8
02/03:17am 10.7 4.2 10.5 99 0.1 S 35 48 19 26 1010.6 1010.6 19.6
02/03:00am 11.1 5.1 10.9 99 0.1 S 33 54 18 29 1010.2 1010.2 18.8
02/02:44am 11.5 4.9 11.3 99 0.1 S 37 56 20 30 1009.7 1009.7 17.6
02/02:38am 11.6 5.4 11.4 99 0.1 SSW 35 56 19 30 1009.5 1009.5 17.2
02/02:35am 11.6 5.8 11.4 99 0.1 SSW 33 56 18 30 1009.3 1009.3 17.2
02/02:30am 11.7 6.5 11.5 99 0.1 SSW 30 43 16 23 1009.2 1009.2 17.2
02/02:28am 11.7 6.9 11.5 99 0.1 SSW 28 39 15 21 1009.2 1009.2 17.2
02/02:00am 12.8 11.9 12.6 99 0.1 W 9 13 5 7 1009.0 1009.0 15.8
02/01:30am 13.0 13.9 12.8 99 0.1 CALM 0 0 0 0 1009.1 1009.1 14.6
02/01:00am 13.1 12.3 12.9 99 0.1 N 9 11 5 6 1009.3 1009.3 12.8
02/12:49am 13.1 12.7 12.9 99 0.1 NNW 7 9 4 5 1009.3 1009.3 12.6
02/12:34am 13.2 12.4 13.0 99 0.1 NNW 9 9 5 5 1009.5 1009.5 12.6
02/12:30am 13.2 12.4 13.0 99 0.1 NNW 9 9 5 5 1009.6 1009.6 12.6
02/12:20am 13.1 13.6 12.9 99 0.1 NW 2 7 1 4 1009.4 1009.4 12.6
02/12:03am 13.2 12.4 13.0 99 0.1 NW 9 13 5 7 1009.5 1009.5 12.2
02/12:00am 13.2 12.4 13.0 99 0.1 NW 9 13 5 7 1009.6 1009.6 12.0
 
Date/Time
EDT
Temp
°C
App
Temp
°C
Dew
Point
Rel
Hum
%
Delta-T
°C
Wind Press
QNH
hPa
Press
MSL
hPa
Rain
since 9 am
mm
Dir
 
Spd
km/h
Gust
km/h
Spd
kts
Gust
kts
01/11:30pm 13.2 11.7 13.0 99 0.1 WNW 13 17 7 9 1009.3 1009.3 9.6
01/11:25pm 13.2 11.7 13.0 99 0.1 WNW 13 17 7 9 1009.3 1009.3 9.4
01/11:01pm 13.3 11.0 13.0 98 0.2 WNW 17 24 9 13 1009.1 1009.1 7.6
01/11:00pm 13.3 11.0 13.0 98 0.2 WNW 17 24 9 13 1009.1 1009.1 7.6
01/10:51pm 13.2 10.4 12.6 96 0.3 WNW 19 30 10 16 1008.6 1008.6 7.4
01/10:42pm 13.2 7.2 12.1 93 0.6 WNW 35 54 19 29 1008.7 1008.7 6.2
01/10:37pm 14.8 9.4 13.8 94 0.6 NW 35 54 19 29 1008.5 1008.5 3.0
01/10:30pm 15.7 10.9 14.6 93 0.6 NNW 33 44 18 24 1007.6 1007.6 2.0
01/10:25pm 16.0 11.3 14.4 90 0.9 NNW 32 46 17 25 1007.5 1007.5 2.0
01/10:00pm 16.5 10.3 13.8 84 1.5 NNW 39 54 21 29 1007.1 1007.1 1.6
01/09:41pm 16.7 12.5 13.4 81 1.9 N 28 46 15 25 1006.8 1006.8 1.6
01/09:30pm 16.5 12.6 13.4 82 1.7 N 26 44 14 24 1006.6 1006.6 1.6
01/09:00pm 15.4 13.9 14.3 93 0.6 NNE 15 24 8 13 1006.6 1006.6 1.6
01/08:30pm 15.2 14.2 14.6 96 0.3 NNE 13 22 7 12 1006.7 1006.7 1.4
01/08:00pm 15.1 13.7 14.6 97 0.3 NE 15 20 8 11 1006.8 1006.8 1.4
01/07:30pm 15.3 13.6 14.7 96 0.3 N 17 24 9 13 1008.0 1008.0 1.4
01/07:00pm 15.7 12.7 14.9 95 0.5 N 24 33 13 18 1008.9 1008.9 0.8
01/06:30pm 16.0 12.1 14.5 91 0.9 NNW 28 43 15 23 1009.1 1009.1 0.6
01/06:00pm 17.5 12.7 13.0 75 2.5 NNW 30 41 16 22 1008.8 1008.8 0.2
01/05:30pm 18.8 12.1 12.3 66 3.6 NW 39 54 21 29 1008.5 1008.5 0.2
01/05:11pm 19.2 12.9 12.2 64 3.9 NW 37 57 20 31 1008.4 1008.4 0.2
01/05:00pm 19.6 12.5 12.1 62 4.2 NW 41 52 22 28 1008.3 1008.3 0.2
01/04:31pm 20.7 15.3 12.1 58 4.8 NNW 32 54 17 29 1008.0 1008.0 0.2
01/04:30pm 20.6 15.2 12.3 59 4.7 NNW 32 46 17 25 1008.0 1008.0 0.2
01/04:29pm 20.4 15.5 12.6 61 4.4 NNW 30 43 16 23 1008.0 1008.0 0.2
01/04:00pm 22.1 19.9 13.2 57 5.1 NNW 17 24 9 13 1007.9 1007.9 0.2
01/03:30pm 22.5 19.5 12.7 54 5.6 N 20 30 11 16 1007.9 1007.9 0.2
01/03:00pm 23.1 19.0 12.7 52 6.0 NNW 26 39 14 21 1008.7 1008.7 0.2
01/02:59pm 23.1 19.2 12.1 50 6.2 NNW 24 39 13 21 1008.7 1008.7 0.2
01/02:30pm 22.3 21.8 13.9 59 4.9 NNW 9 13 5 7 1009.3 1009.3 0.2
01/02:00pm 22.3 20.0 13.1 56 5.3 N 17 26 9 14 1009.7 1009.7 0.2
01/01:30pm 22.7 19.0 12.6 53 5.8 N 24 35 13 19 1010.1 1010.1 0.2
01/01:00pm 22.6 18.4 12.3 52 5.8 N 26 35 14 19 1010.5 1010.5 0.2
01/12:30pm 22.3 18.3 11.7 51 5.9 N 24 35 13 19 1011.1 1011.1 0.2
01/12:00pm 22.3 18.4 12.0 52 5.8 NNE 24 39 13 21 1011.4 1011.4 0.2
01/11:30am 22.4 18.7 11.5 50 6.1 NNE 22 35 12 19 1011.9 1011.9 0.0
01/11:00am 21.9 18.0 12.2 54 5.5 NNE 24 43 13 23 1012.4 1012.4 0.0
01/10:30am 20.8 16.7 11.4 55 5.2 NNE 24 41 13 22 1012.7 1012.7 0.0
01/10:00am 19.9 15.8 11.4 58 4.7 NNE 24 39 13 21 1013.1 1013.1 0.0
01/09:30am 19.1 16.0 11.7 62 4.1 NNE 19 32 10 17 1013.6 1013.6 0.0
01/09:00am 17.7 14.9 11.3 66 3.5 NNE 17 26 9 14 1013.7 1013.7 0.0
01/08:30am 16.6 12.9 10.2 66 3.4 NNE 20 33 11 18 1013.8 1013.8 0.0
01/08:00am 15.7 11.9 9.8 68 3.1 NNE 20 32 11 17 1013.9 1013.9 0.0
01/07:30am 14.4 10.7 9.4 72 2.6 NNE 19 26 10 14 1013.9 1013.9 0.0
01/07:00am 13.9 10.2 9.3 74 2.3 NNE 19 26 10 14 1014.1 1014.1 0.0
01/06:30am 13.4 9.6 9.8 79 1.8 NNE 20 28 11 15 1014.5 1014.5 0.0
01/06:00am 12.7 9.6 10.2 85 1.3 NNE 17 24 9 13 1015.2 1015.2 0.0
01/05:30am 12.0 9.7 10.4 90 0.8 NNE 13 17 7 9 1015.8 1015.7 0.0
01/05:00am 11.5 9.1 10.1 91 0.7 NE 13 17 7 9 1016.3 1016.2 0.0
01/04:30am 11.8 9.9 10.4 91 0.7 NNE 11 15 6 8 1016.8 1016.7 0.0
01/04:00am 11.8 9.2 10.7 93 0.6 NNE 15 17 8 9 1017.2 1017.1 0.0
01/03:30am 11.5 9.3 10.7 95 0.4 NNE 13 17 7 9 1018.0 1017.9 0.0
01/03:00am 11.2 9.7 10.4 95 0.4 NNE 9 13 5 7 1018.7 1018.6 0.0
01/02:30am 11.4 9.5 10.6 95 0.4 NNE 11 15 6 8 1019.4 1019.3 0.0
01/02:00am 11.4 9.5 10.6 95 0.4 NNE 11 13 6 7 1019.7 1019.6 0.0
01/01:30am 11.3 9.8 10.5 95 0.4 NNE 9 15 5 8 1020.2 1020.1 0.0
01/01:00am 11.5 10.0 10.6 94 0.5 NNE 9 11 5 6 1020.8 1020.7 0.0
01/12:30am 11.7 10.2 10.6 93 0.6 NNE 9 13 5 7 1021.1 1021.0 0.0
01/12:00am 12.1 10.7 11.0 93 0.6 NNE 9 13 5 7 1021.3 1021.2 0.0
 
Date/Time
EDT
Temp
°C
App
Temp
°C
Dew
Point
Rel
Hum
%
Delta-T
°C
Wind Press
QNH
hPa
Press
MSL
hPa
Rain
since 9 am
mm
Dir
 
Spd
km/h
Gust
km/h
Spd
kts
Gust
kts
31/11:30pm 12.3 10.9 10.9 91 0.7 N 9 11 5 6 1021.7 1021.6 0.0
31/11:00pm 13.3 11.3 11.4 88 1.0 N 13 15 7 8 1021.9 1021.8 0.0
31/10:30pm 14.1 11.8 11.8 86 1.2 N 15 20 8 11 1022.2 1022.1 0.0
31/10:00pm 14.3 11.6 11.6 84 1.4 NNW 17 24 9 13 1022.8 1022.8 0.0
31/09:30pm 14.3 11.6 11.8 85 1.3 NNW 17 22 9 12 1022.9 1022.9 0.0
31/09:00pm 14.3 11.7 12.0 86 1.2 NNW 17 20 9 11 1022.9 1022.9 0.0
31/08:30pm 14.2 11.6 12.1 87 1.1 NNW 17 22 9 12 1022.8 1022.8 0.0
31/08:00pm 14.2 12.0 12.2 88 1.1 NNW 15 24 8 13 1022.8 1022.8 0.0
31/07:30pm 14.2 11.7 12.4 89 1.0 NNW 17 22 9 12 1022.7 1022.7 0.0
31/07:17pm 14.2 11.3 12.4 89 1.0 NW 19 26 10 14 1022.6 1022.6 0.0
31/07:00pm 14.3 11.8 12.3 88 1.1 NW 17 24 9 13 1022.6 1022.6 0.0
31/06:45pm 14.4 11.5 12.4 88 1.1 NW 19 24 10 13 1022.6 1022.6 0.0
31/06:34pm 14.4 11.4 12.4 88 1.1 NW 20 26 11 14 1022.6 1022.6 0.0
31/06:30pm 14.3 11.4 12.3 88 1.1 NW 19 24 10 13 1022.6 1022.6 0.0
31/06:00pm 14.7 12.0 12.9 89 1.0 NW 19 24 10 13 1022.4 1022.4 0.0
31/05:50pm 14.5 11.5 12.5 88 1.1 NW 20 26 11 14 1022.4 1022.4 0.0
31/05:39pm 15.0 12.6 12.7 86 1.3 NW 17 24 9 13 1022.4 1022.4 0.0
31/05:30pm 14.9 12.0 12.4 85 1.4 NW 19 24 10 13 1022.4 1022.4 0.0
31/05:00pm 15.3 12.3 12.4 83 1.6 NW 20 26 11 14 1022.5 1022.5 0.0
31/04:30pm 15.5 12.6 12.3 81 1.7 NW 19 24 10 13 1022.8 1022.8 0.0
31/04:00pm 15.4 13.0 12.7 84 1.5 NW 17 22 9 12 1023.2 1023.2 0.0
31/03:30pm 15.6 12.6 12.4 81 1.8 NW 20 28 11 15 1023.3 1023.3 0.0
31/03:00pm 15.6 12.6 12.5 82 1.7 NW 20 26 11 14 1023.6 1023.6 0.0
31/02:30pm 15.1 12.1 12.4 84 1.5 NW 20 28 11 15 1023.9 1023.9 0.0
31/02:00pm 16.5 13.2 12.8 79 2.0 NW 22 33 12 18 1024.0 1024.0 0.0
31/01:30pm 15.5 11.8 12.8 84 1.5 NW 24 30 13 16 1024.4 1024.4 0.0
31/01:00pm 15.1 11.5 13.0 87 1.2 NW 24 33 13 18 1024.9 1024.9 0.0
31/12:30pm 15.1 11.8 12.8 86 1.3 NNW 22 28 12 15 1025.1 1025.1 0.0
31/12:00pm 14.4 11.8 13.1 92 0.7 NNW 19 26 10 14 1025.4 1025.4 0.0
31/11:51am 14.2 12.4 13.2 94 0.6 NNW 15 20 8 11 1025.5 1025.5 0.0
31/11:40am 14.4 12.7 13.6 95 0.4 N 15 20 8 11 1025.5 1025.5 0.0
31/11:39am 14.3 12.5 13.3 94 0.6 N 15 20 8 11 1025.5 1025.5 0.0
31/11:33am 14.2 12.7 13.2 94 0.6 N 13 19 7 10 1025.6 1025.6 0.0
31/11:30am 14.3 12.5 13.3 94 0.6 NNW 15 20 8 11 1025.5 1025.5 0.0
31/11:24am 14.3 12.5 13.2 93 0.6 NNW 15 20 8 11 1025.6 1025.6 0.0
31/11:16am 14.0 11.0 12.6 91 0.8 NNW 20 26 11 14 1025.5 1025.5 0.0
31/11:11am 14.0 10.8 12.0 88 1.1 NNW 20 26 11 14 1025.5 1025.5 0.0
31/11:00am 14.6 12.4 12.1 85 1.3 N 15 20 8 11 1025.4 1025.4 0.0
31/10:30am 14.1 12.5 12.7 91 0.8 N 13 19 7 10 1025.4 1025.4 0.0
31/10:14am 13.6 11.9 12.5 93 0.6 N 13 19 7 10 1025.5 1025.5 0.0
31/10:00am 13.5 11.7 12.2 92 0.7 N 13 19 7 10 1025.3 1025.3 0.0
31/09:49am 13.5 11.2 11.9 90 0.9 N 15 20 8 11 1025.2 1025.2 0.0
31/09:30am 13.5 12.1 12.1 91 0.8 NNE 11 15 6 8 1025.2 1025.2 0.0
31/09:00am 12.9 11.8 12.0 94 0.5 NNE 9 15 5 8 1025.2 1025.2 0.2
31/08:30am 12.8 11.7 12.0 95 0.4 NNE 9 15 5 8 1025.2 1025.2 0.2
31/08:00am 12.5 11.0 11.9 96 0.3 NNE 11 17 6 9 1024.9 1024.9 0.2
31/07:30am 12.4 10.9 11.9 97 0.3 NNE 11 15 6 8 1024.8 1024.8 0.2
31/07:18am 12.4 11.6 11.8 96 0.3 NNE 7 9 4 5 1024.6 1024.6 0.2
31/07:08am 12.5 11.8 11.9 96 0.3 NNE 7 9 4 5 1024.7 1024.7 0.2
31/07:00am 12.6 11.9 12.0 96 0.3 NNE 7 13 4 7 1024.6 1024.6 0.2
31/06:37am 12.7 10.7 11.6 93 0.6 N 13 17 7 9 1024.2 1024.2 0.0
31/06:30am 12.8 10.4 11.4 91 0.7 N 15 20 8 11 1024.3 1024.3 0.0
31/06:26am 12.9 10.1 11.3 90 0.8 N 17 20 9 11 1024.3 1024.3 0.0
31/06:00am 12.7 11.2 10.6 87 1.1 N 9 11 5 6 1024.1 1024.1 0.0
31/05:30am 12.7 11.2 10.4 86 1.2 NNE 9 13 5 7 1024.0 1024.0 0.0
31/05:00am 12.7 11.2 10.4 86 1.2 NE 9 13 5 7 1023.9 1023.9 0.0
31/04:30am 12.9 11.1 10.8 87 1.1 NNE 11 15 6 8 1024.0 1024.0 0.0
31/04:00am 13.0 11.2 10.7 86 1.2 NE 11 15 6 8 1024.1 1024.1 0.0
31/03:30am 13.1 11.3 10.8 86 1.2 NNE 11 15 6 8 1024.3 1024.3 0.0
31/03:00am 13.1 12.2 10.8 86 1.2 WNW 6 9 3 5 1024.5 1024.5 0.0
31/02:30am 13.3 11.5 10.8 85 1.3 NNE 11 13 6 7 1024.5 1024.5 0.0
31/02:00am 13.2 11.7 10.7 85 1.3 NNE 9 13 5 7 1024.5 1024.5 0.0
31/01:30am 13.3 11.9 11.0 86 1.2 NNE 9 13 5 7 1024.4 1024.4 0.0
31/01:00am 13.3 12.0 11.2 87 1.1 NNE 9 17 5 9 1024.5 1024.5 0.0
31/12:30am 13.2 11.9 11.3 88 1.0 NNE 9 13 5 7 1024.5 1024.5 0.0
31/12:00am 13.2 12.3 11.3 88 1.0 N 7 11 4 6 1024.7 1024.7 0.0
 
Date/Time
EDT
Temp
°C
App
Temp
°C
Dew
Point
Rel
Hum
%
Delta-T
°C
Wind Press
QNH
hPa
Press
MSL
hPa
Rain
since 9 am
mm
Dir
 
Spd
km/h
Gust
km/h
Spd
kts
Gust
kts
30/11:30pm 13.3 12.4 11.5 89 1.0 N 7 9 4 5 1024.8 1024.8 0.0
30/11:00pm 13.5 12.2 11.4 87 1.1 N 9 13 5 7 1024.8 1024.8 0.0
30/10:30pm 13.7 12.9 11.6 87 1.1 N 7 11 4 6 1024.8 1024.8 0.0
30/10:00pm 13.7 12.4 11.4 86 1.2 N 9 13 5 7 1024.7 1024.7 0.0
30/09:30pm 13.8 12.4 11.0 83 1.5 NNE 9 13 5 7 1024.6 1024.6 0.0
30/09:00pm 14.1 13.1 10.9 81 1.7 N 7 9 4 5 1024.6 1024.6 0.0

Other Formats:

Comma delimited format used in spreadsheet applications
http://www.bom.gov.au/fwo/IDT60801/IDT60801.94956.axf

JavaScript Object Notation format (JSON) in row-major order
http://www.bom.gov.au/fwo/IDT60801/IDT60801.94956.json